sensor_id;sensor_type;location;lat;lon;timestamp;temperature;humidity
5705;DHT22;2877;48.238;11.160;2023-03-14T00:01:10;9.60;99.90
5705;DHT22;2877;48.238;11.160;2023-03-14T00:03:36;9.60;99.90
5705;DHT22;2877;48.238;11.160;2023-03-14T00:06:03;9.60;99.90
5705;DHT22;2877;48.238;11.160;2023-03-14T00:08:29;9.60;99.90
5705;DHT22;2877;48.238;11.160;2023-03-14T00:10:55;9.60;99.90
5705;DHT22;2877;48.238;11.160;2023-03-14T00:13:20;9.70;99.90
5705;DHT22;2877;48.238;11.160;2023-03-14T00:15:46;9.70;99.90
5705;DHT22;2877;48.238;11.160;2023-03-14T00:18:11;9.70;99.90
5705;DHT22;2877;48.238;11.160;2023-03-14T00:20:37;9.70;99.90
5705;DHT22;2877;48.238;11.160;2023-03-14T00:23:02;9.70;99.90
5705;DHT22;2877;48.238;11.160;2023-03-14T00:25:28;9.70;99.90
5705;DHT22;2877;48.238;11.160;2023-03-14T00:27:53;9.60;99.90
5705;DHT22;2877;48.238;11.160;2023-03-14T00:30:19;9.60;99.90
5705;DHT22;2877;48.238;11.160;2023-03-14T00:32:45;9.50;99.90
5705;DHT22;2877;48.238;11.160;2023-03-14T00:35:10;9.50;99.90
5705;DHT22;2877;48.238;11.160;2023-03-14T00:37:36;9.50;99.90
5705;DHT22;2877;48.238;11.160;2023-03-14T00:40:02;9.50;99.90
5705;DHT22;2877;48.238;11.160;2023-03-14T00:42:31;9.50;99.90
5705;DHT22;2877;48.238;11.160;2023-03-14T00:44:57;9.50;99.90
5705;DHT22;2877;48.238;11.160;2023-03-14T00:47:22;9.50;99.90
5705;DHT22;2877;48.238;11.160;2023-03-14T00:49:48;9.50;99.90
5705;DHT22;2877;48.238;11.160;2023-03-14T00:52:14;9.50;99.90
5705;DHT22;2877;48.238;11.160;2023-03-14T00:54:39;9.50;99.90
5705;DHT22;2877;48.238;11.160;2023-03-14T00:57:05;9.60;99.90
5705;DHT22;2877;48.238;11.160;2023-03-14T00:59:30;9.50;99.90
5705;DHT22;2877;48.238;11.160;2023-03-14T01:01:56;9.50;99.90
5705;DHT22;2877;48.238;11.160;2023-03-14T01:04:21;9.40;99.90
5705;DHT22;2877;48.238;11.160;2023-03-14T01:06:47;9.30;99.90
5705;DHT22;2877;48.238;11.160;2023-03-14T01:09:13;9.20;99.90
5705;DHT22;2877;48.238;11.160;2023-03-14T01:11:38;9.10;99.90
5705;DHT22;2877;48.238;11.160;2023-03-14T01:14:04;9.00;99.90
5705;DHT22;2877;48.238;11.160;2023-03-14T01:16:33;8.90;99.90
5705;DHT22;2877;48.238;11.160;2023-03-14T01:18:59;8.80;99.90
5705;DHT22;2877;48.238;11.160;2023-03-14T01:21:28;8.80;99.90
5705;DHT22;2877;48.238;11.160;2023-03-14T01:23:55;8.70;99.90
5705;DHT22;2877;48.238;11.160;2023-03-14T01:26:23;8.60;99.90
5705;DHT22;2877;48.238;11.160;2023-03-14T01:28:50;8.60;99.90
5705;DHT22;2877;48.238;11.160;2023-03-14T01:31:16;8.60;99.90
5705;DHT22;2877;48.238;11.160;2023-03-14T01:33:42;8.60;99.90
5705;DHT22;2877;48.238;11.160;2023-03-14T01:36:09;8.50;99.90
5705;DHT22;2877;48.238;11.160;2023-03-14T01:38:35;8.50;99.90
5705;DHT22;2877;48.238;11.160;2023-03-14T01:41:01;8.40;99.90
5705;DHT22;2877;48.238;11.160;2023-03-14T01:43:28;8.40;99.90
5705;DHT22;2877;48.238;11.160;2023-03-14T01:49:02;8.30;99.90
5705;DHT22;2877;48.238;11.160;2023-03-14T01:54:16;8.30;99.90
5705;DHT22;2877;48.238;11.160;2023-03-14T01:56:46;8.20;99.90
5705;DHT22;2877;48.238;11.160;2023-03-14T01:59:13;8.20;99.90
5705;DHT22;2877;48.238;11.160;2023-03-14T02:01:42;8.20;99.90
5705;DHT22;2877;48.238;11.160;2023-03-14T02:04:08;8.10;99.90
5705;DHT22;2877;48.238;11.160;2023-03-14T02:06:42;8.20;99.90
5705;DHT22;2877;48.238;11.160;2023-03-14T02:09:10;8.20;99.90
5705;DHT22;2877;48.238;11.160;2023-03-14T02:11:35;8.20;99.90
5705;DHT22;2877;48.238;11.160;2023-03-14T02:14:02;8.20;99.90
5705;DHT22;2877;48.238;11.160;2023-03-14T02:16:28;8.20;99.90
5705;DHT22;2877;48.238;11.160;2023-03-14T02:18:55;8.10;99.90
5705;DHT22;2877;48.238;11.160;2023-03-14T02:27:15;8.00;99.90
5705;DHT22;2877;48.238;11.160;2023-03-14T02:29:50;7.90;99.90
5705;DHT22;2877;48.238;11.160;2023-03-14T02:32:17;7.90;99.90
5705;DHT22;2877;48.238;11.160;2023-03-14T02:34:49;7.80;99.90
5705;DHT22;2877;48.238;11.160;2023-03-14T02:37:17;7.80;99.90
5705;DHT22;2877;48.238;11.160;2023-03-14T02:39:45;7.80;99.90
5705;DHT22;2877;48.238;11.160;2023-03-14T02:42:13;7.80;99.90
5705;DHT22;2877;48.238;11.160;2023-03-14T02:44:53;7.90;99.90
5705;DHT22;2877;48.238;11.160;2023-03-14T02:47:29;7.90;99.90
5705;DHT22;2877;48.238;11.160;2023-03-14T02:50:04;7.90;99.90
5705;DHT22;2877;48.238;11.160;2023-03-14T02:52:30;7.90;99.90
5705;DHT22;2877;48.238;11.160;2023-03-14T02:54:55;7.90;99.90
5705;DHT22;2877;48.238;11.160;2023-03-14T02:57:21;7.90;99.90
5705;DHT22;2877;48.238;11.160;2023-03-14T02:59:46;7.90;99.90
5705;DHT22;2877;48.238;11.160;2023-03-14T03:02:12;7.90;99.90
5705;DHT22;2877;48.238;11.160;2023-03-14T03:04:37;7.90;99.90
5705;DHT22;2877;48.238;11.160;2023-03-14T03:07:03;7.90;99.90
5705;DHT22;2877;48.238;11.160;2023-03-14T03:09:28;7.90;99.90
5705;DHT22;2877;48.238;11.160;2023-03-14T03:11:54;7.90;99.90
5705;DHT22;2877;48.238;11.160;2023-03-14T03:14:19;7.90;99.90
5705;DHT22;2877;48.238;11.160;2023-03-14T03:16:45;7.90;99.90
5705;DHT22;2877;48.238;11.160;2023-03-14T03:19:10;7.90;99.90
5705;DHT22;2877;48.238;11.160;2023-03-14T03:21:36;7.90;99.90
5705;DHT22;2877;48.238;11.160;2023-03-14T03:24:01;8.00;99.90
5705;DHT22;2877;48.238;11.160;2023-03-14T03:26:27;7.90;99.90
5705;DHT22;2877;48.238;11.160;2023-03-14T03:28:52;7.90;99.90
5705;DHT22;2877;48.238;11.160;2023-03-14T03:31:18;7.90;99.90
5705;DHT22;2877;48.238;11.160;2023-03-14T03:33:44;7.90;99.90
5705;DHT22;2877;48.238;11.160;2023-03-14T03:36:09;7.90;99.90
5705;DHT22;2877;48.238;11.160;2023-03-14T03:38:35;7.90;99.90
5705;DHT22;2877;48.238;11.160;2023-03-14T03:41:08;7.90;99.90
5705;DHT22;2877;48.238;11.160;2023-03-14T03:43:33;7.90;99.90
5705;DHT22;2877;48.238;11.160;2023-03-14T03:46:03;7.80;99.90
5705;DHT22;2877;48.238;11.160;2023-03-14T03:48:29;7.80;99.90
5705;DHT22;2877;48.238;11.160;2023-03-14T03:50:54;7.90;99.90
5705;DHT22;2877;48.238;11.160;2023-03-14T03:53:20;7.90;99.90
5705;DHT22;2877;48.238;11.160;2023-03-14T03:55:45;7.80;99.90
5705;DHT22;2877;48.238;11.160;2023-03-14T03:58:11;7.80;99.90
5705;DHT22;2877;48.238;11.160;2023-03-14T04:00:36;7.80;99.90
5705;DHT22;2877;48.238;11.160;2023-03-14T04:03:02;7.80;99.90
5705;DHT22;2877;48.238;11.160;2023-03-14T04:05:28;7.80;99.90
5705;DHT22;2877;48.238;11.160;2023-03-14T04:07:53;7.80;99.90
5705;DHT22;2877;48.238;11.160;2023-03-14T04:10:19;7.80;99.90
5705;DHT22;2877;48.238;11.160;2023-03-14T04:12:44;7.80;99.90
5705;DHT22;2877;48.238;11.160;2023-03-14T04:15:10;7.70;99.90
5705;DHT22;2877;48.238;11.160;2023-03-14T04:17:35;7.70;99.90
5705;DHT22;2877;48.238;11.160;2023-03-14T04:20:01;7.70;99.90
5705;DHT22;2877;48.238;11.160;2023-03-14T04:22:27;7.70;99.90
5705;DHT22;2877;48.238;11.160;2023-03-14T04:24:52;7.70;99.90
5705;DHT22;2877;48.238;11.160;2023-03-14T04:27:18;7.70;99.90
5705;DHT22;2877;48.238;11.160;2023-03-14T04:29:43;7.70;99.90
5705;DHT22;2877;48.238;11.160;2023-03-14T04:32:09;7.60;99.90
5705;DHT22;2877;48.238;11.160;2023-03-14T04:34:35;7.60;99.90
5705;DHT22;2877;48.238;11.160;2023-03-14T04:37:00;7.60;99.90
5705;DHT22;2877;48.238;11.160;2023-03-14T04:39:26;7.60;99.90
5705;DHT22;2877;48.238;11.160;2023-03-14T04:41:51;7.60;99.90
5705;DHT22;2877;48.238;11.160;2023-03-14T04:44:17;7.60;99.90
5705;DHT22;2877;48.238;11.160;2023-03-14T04:46:43;7.50;99.90
5705;DHT22;2877;48.238;11.160;2023-03-14T04:49:08;7.50;99.90
5705;DHT22;2877;48.238;11.160;2023-03-14T04:51:34;7.50;99.90
5705;DHT22;2877;48.238;11.160;2023-03-14T04:54:00;7.50;99.90
5705;DHT22;2877;48.238;11.160;2023-03-14T04:56:25;7.50;99.90
5705;DHT22;2877;48.238;11.160;2023-03-14T04:58:51;7.50;99.90
5705;DHT22;2877;48.238;11.160;2023-03-14T05:01:16;7.50;99.90
5705;DHT22;2877;48.238;11.160;2023-03-14T05:03:43;7.50;99.90
5705;DHT22;2877;48.238;11.160;2023-03-14T05:06:08;7.40;99.90
5705;DHT22;2877;48.238;11.160;2023-03-14T05:08:34;7.50;99.90
5705;DHT22;2877;48.238;11.160;2023-03-14T05:10:59;7.50;99.90
5705;DHT22;2877;48.238;11.160;2023-03-14T05:13:25;7.50;99.90
5705;DHT22;2877;48.238;11.160;2023-03-14T05:15:51;7.50;99.90
5705;DHT22;2877;48.238;11.160;2023-03-14T05:18:17;7.60;99.90
5705;DHT22;2877;48.238;11.160;2023-03-14T05:20:42;7.60;99.90
5705;DHT22;2877;48.238;11.160;2023-03-14T05:23:11;7.60;99.90
5705;DHT22;2877;48.238;11.160;2023-03-14T05:25:36;7.60;99.90
5705;DHT22;2877;48.238;11.160;2023-03-14T05:28:02;7.60;99.90
5705;DHT22;2877;48.238;11.160;2023-03-14T05:30:28;7.50;99.90
5705;DHT22;2877;48.238;11.160;2023-03-14T05:32:54;7.60;99.90
5705;DHT22;2877;48.238;11.160;2023-03-14T05:35:19;7.60;99.90
5705;DHT22;2877;48.238;11.160;2023-03-14T05:37:45;7.60;99.90
5705;DHT22;2877;48.238;11.160;2023-03-14T05:40:11;7.60;99.90
5705;DHT22;2877;48.238;11.160;2023-03-14T05:42:36;7.60;99.90
5705;DHT22;2877;48.238;11.160;2023-03-14T05:45:02;7.70;99.90
5705;DHT22;2877;48.238;11.160;2023-03-14T05:47:28;7.60;99.90
5705;DHT22;2877;48.238;11.160;2023-03-14T05:49:53;7.60;99.90
5705;DHT22;2877;48.238;11.160;2023-03-14T05:52:19;7.60;99.90
5705;DHT22;2877;48.238;11.160;2023-03-14T05:54:45;7.60;99.90
5705;DHT22;2877;48.238;11.160;2023-03-14T05:57:10;7.60;99.90
5705;DHT22;2877;48.238;11.160;2023-03-14T05:59:36;7.60;99.90
5705;DHT22;2877;48.238;11.160;2023-03-14T06:02:01;7.70;99.90
5705;DHT22;2877;48.238;11.160;2023-03-14T06:04:27;7.70;99.90
5705;DHT22;2877;48.238;11.160;2023-03-14T06:06:52;7.70;99.90
5705;DHT22;2877;48.238;11.160;2023-03-14T06:09:18;7.70;99.90
5705;DHT22;2877;48.238;11.160;2023-03-14T06:11:45;7.70;99.90
5705;DHT22;2877;48.238;11.160;2023-03-14T06:14:12;7.70;99.90
5705;DHT22;2877;48.238;11.160;2023-03-14T06:16:37;7.70;99.90
5705;DHT22;2877;48.238;11.160;2023-03-14T06:19:03;7.70;99.90
5705;DHT22;2877;48.238;11.160;2023-03-14T06:21:29;7.70;99.90
5705;DHT22;2877;48.238;11.160;2023-03-14T06:23:55;7.70;99.90
5705;DHT22;2877;48.238;11.160;2023-03-14T06:26:20;7.60;99.90
5705;DHT22;2877;48.238;11.160;2023-03-14T06:28:47;7.70;99.90
5705;DHT22;2877;48.238;11.160;2023-03-14T06:31:12;7.70;99.90
5705;DHT22;2877;48.238;11.160;2023-03-14T06:33:38;7.70;99.90
5705;DHT22;2877;48.238;11.160;2023-03-14T06:36:03;7.80;99.90
5705;DHT22;2877;48.238;11.160;2023-03-14T06:38:29;7.80;99.90
5705;DHT22;2877;48.238;11.160;2023-03-14T06:40:54;7.90;99.90
5705;DHT22;2877;48.238;11.160;2023-03-14T06:43:20;7.90;99.90
5705;DHT22;2877;48.238;11.160;2023-03-14T06:45:46;8.00;99.90
5705;DHT22;2877;48.238;11.160;2023-03-14T06:48:11;8.00;99.90
5705;DHT22;2877;48.238;11.160;2023-03-14T06:50:37;8.00;99.90
5705;DHT22;2877;48.238;11.160;2023-03-14T06:53:02;8.00;99.90
5705;DHT22;2877;48.238;11.160;2023-03-14T06:55:28;8.00;99.90
5705;DHT22;2877;48.238;11.160;2023-03-14T06:57:53;8.00;99.90
5705;DHT22;2877;48.238;11.160;2023-03-14T07:00:19;8.00;99.90
5705;DHT22;2877;48.238;11.160;2023-03-14T07:02:45;8.00;99.90
5705;DHT22;2877;48.238;11.160;2023-03-14T07:05:10;8.10;99.90
5705;DHT22;2877;48.238;11.160;2023-03-14T07:07:36;8.10;99.90
5705;DHT22;2877;48.238;11.160;2023-03-14T07:10:02;8.10;99.90
5705;DHT22;2877;48.238;11.160;2023-03-14T07:12:27;8.10;99.90
5705;DHT22;2877;48.238;11.160;2023-03-14T07:14:53;8.10;99.90
5705;DHT22;2877;48.238;11.160;2023-03-14T07:17:18;8.10;99.90
5705;DHT22;2877;48.238;11.160;2023-03-14T07:19:44;8.20;99.90
5705;DHT22;2877;48.238;11.160;2023-03-14T07:22:09;8.20;99.90
5705;DHT22;2877;48.238;11.160;2023-03-14T07:24:35;8.30;99.90
5705;DHT22;2877;48.238;11.160;2023-03-14T07:27:00;8.20;99.90
5705;DHT22;2877;48.238;11.160;2023-03-14T07:29:26;8.30;99.90
5705;DHT22;2877;48.238;11.160;2023-03-14T07:31:51;8.30;99.90
5705;DHT22;2877;48.238;11.160;2023-03-14T07:34:17;8.40;99.90
5705;DHT22;2877;48.238;11.160;2023-03-14T07:36:42;8.40;99.90
5705;DHT22;2877;48.238;11.160;2023-03-14T07:39:08;8.40;99.90
5705;DHT22;2877;48.238;11.160;2023-03-14T07:41:34;8.50;99.90
5705;DHT22;2877;48.238;11.160;2023-03-14T07:44:00;8.50;99.90
5705;DHT22;2877;48.238;11.160;2023-03-14T07:46:26;8.60;99.90
5705;DHT22;2877;48.238;11.160;2023-03-14T07:48:51;8.60;99.90
5705;DHT22;2877;48.238;11.160;2023-03-14T07:51:17;8.70;99.90
5705;DHT22;2877;48.238;11.160;2023-03-14T07:53:42;8.70;99.90
5705;DHT22;2877;48.238;11.160;2023-03-14T07:56:09;8.80;99.90
5705;DHT22;2877;48.238;11.160;2023-03-14T07:58:34;8.90;99.90
5705;DHT22;2877;48.238;11.160;2023-03-14T08:01:00;9.00;99.90
5705;DHT22;2877;48.238;11.160;2023-03-14T08:03:25;9.10;99.90
5705;DHT22;2877;48.238;11.160;2023-03-14T08:05:51;9.10;99.90
5705;DHT22;2877;48.238;11.160;2023-03-14T08:08:17;9.20;99.90
5705;DHT22;2877;48.238;11.160;2023-03-14T08:10:43;9.30;99.90
5705;DHT22;2877;48.238;11.160;2023-03-14T08:13:09;9.30;99.90
5705;DHT22;2877;48.238;11.160;2023-03-14T08:15:35;9.40;99.90
5705;DHT22;2877;48.238;11.160;2023-03-14T08:18:02;9.50;99.90
5705;DHT22;2877;48.238;11.160;2023-03-14T08:20:29;9.60;99.90
5705;DHT22;2877;48.238;11.160;2023-03-14T08:23:00;9.70;99.90
5705;DHT22;2877;48.238;11.160;2023-03-14T08:25:27;9.80;99.90
5705;DHT22;2877;48.238;11.160;2023-03-14T08:27:53;9.90;99.90
5705;DHT22;2877;48.238;11.160;2023-03-14T08:30:19;10.00;99.90
5705;DHT22;2877;48.238;11.160;2023-03-14T08:32:45;10.00;99.90
5705;DHT22;2877;48.238;11.160;2023-03-14T08:35:11;9.90;99.90
5705;DHT22;2877;48.238;11.160;2023-03-14T08:37:37;9.90;99.90
5705;DHT22;2877;48.238;11.160;2023-03-14T08:40:04;9.90;99.90
5705;DHT22;2877;48.238;11.160;2023-03-14T08:42:38;9.90;99.90
5705;DHT22;2877;48.238;11.160;2023-03-14T08:45:04;10.00;99.90
5705;DHT22;2877;48.238;11.160;2023-03-14T08:47:29;10.00;99.90
5705;DHT22;2877;48.238;11.160;2023-03-14T08:49:55;9.90;99.90
5705;DHT22;2877;48.238;11.160;2023-03-14T08:52:20;10.00;99.90
5705;DHT22;2877;48.238;11.160;2023-03-14T08:54:47;9.90;99.90
5705;DHT22;2877;48.238;11.160;2023-03-14T08:57:12;10.00;99.90
5705;DHT22;2877;48.238;11.160;2023-03-14T08:59:38;10.00;99.90
5705;DHT22;2877;48.238;11.160;2023-03-14T09:02:04;9.90;99.90
5705;DHT22;2877;48.238;11.160;2023-03-14T09:04:31;10.10;99.90
5705;DHT22;2877;48.238;11.160;2023-03-14T09:06:57;10.10;99.90
5705;DHT22;2877;48.238;11.160;2023-03-14T09:09:26;10.20;99.90
5705;DHT22;2877;48.238;11.160;2023-03-14T09:11:52;10.40;99.90
5705;DHT22;2877;48.238;11.160;2023-03-14T09:14:18;10.50;99.90
5705;DHT22;2877;48.238;11.160;2023-03-14T09:16:43;10.50;99.90
5705;DHT22;2877;48.238;11.160;2023-03-14T09:19:09;10.50;99.90
5705;DHT22;2877;48.238;11.160;2023-03-14T09:21:34;10.60;99.90
5705;DHT22;2877;48.238;11.160;2023-03-14T09:24:00;10.80;99.90
5705;DHT22;2877;48.238;11.160;2023-03-14T09:26:25;10.90;99.90
5705;DHT22;2877;48.238;11.160;2023-03-14T09:28:51;10.80;99.90
5705;DHT22;2877;48.238;11.160;2023-03-14T09:31:16;10.80;99.90
5705;DHT22;2877;48.238;11.160;2023-03-14T09:33:42;10.80;99.90
5705;DHT22;2877;48.238;11.160;2023-03-14T09:36:08;10.90;99.90
5705;DHT22;2877;48.238;11.160;2023-03-14T09:38:34;11.00;99.90
5705;DHT22;2877;48.238;11.160;2023-03-14T09:41:01;11.20;99.90
5705;DHT22;2877;48.238;11.160;2023-03-14T09:43:31;11.10;99.90
5705;DHT22;2877;48.238;11.160;2023-03-14T09:45:58;11.20;99.90
5705;DHT22;2877;48.238;11.160;2023-03-14T09:48:29;11.20;99.90
5705;DHT22;2877;48.238;11.160;2023-03-14T09:50:57;11.30;99.90
5705;DHT22;2877;48.238;11.160;2023-03-14T09:53:28;11.50;99.90
5705;DHT22;2877;48.238;11.160;2023-03-14T09:55:59;11.60;99.90
5705;DHT22;2877;48.238;11.160;2023-03-14T09:58:26;11.60;99.90
5705;DHT22;2877;48.238;11.160;2023-03-14T10:00:55;11.70;99.90
5705;DHT22;2877;48.238;11.160;2023-03-14T10:03:31;11.80;99.90
5705;DHT22;2877;48.238;11.160;2023-03-14T10:05:57;11.70;99.90
5705;DHT22;2877;48.238;11.160;2023-03-14T10:08:23;11.70;99.90
5705;DHT22;2877;48.238;11.160;2023-03-14T10:10:49;11.80;99.90
5705;DHT22;2877;48.238;11.160;2023-03-14T10:13:26;11.90;99.90
5705;DHT22;2877;48.238;11.160;2023-03-14T10:18:18;12.00;99.90
5705;DHT22;2877;48.238;11.160;2023-03-14T10:20:47;12.10;99.90
5705;DHT22;2877;48.238;11.160;2023-03-14T10:25:40;12.10;99.90
5705;DHT22;2877;48.238;11.160;2023-03-14T10:28:26;12.20;99.90
5705;DHT22;2877;48.238;11.160;2023-03-14T10:30:53;12.40;99.90
5705;DHT22;2877;48.238;11.160;2023-03-14T10:33:23;12.50;99.90
5705;DHT22;2877;48.238;11.160;2023-03-14T10:36:01;12.60;99.90
5705;DHT22;2877;48.238;11.160;2023-03-14T10:38:35;12.50;99.90
5705;DHT22;2877;48.238;11.160;2023-03-14T10:41:02;12.50;99.90
5705;DHT22;2877;48.238;11.160;2023-03-14T10:43:32;12.40;99.90
5705;DHT22;2877;48.238;11.160;2023-03-14T10:46:02;12.30;99.90
5705;DHT22;2877;48.238;11.160;2023-03-14T10:48:36;12.20;99.90
5705;DHT22;2877;48.238;11.160;2023-03-14T10:51:07;12.30;99.90
5705;DHT22;2877;48.238;11.160;2023-03-14T10:53:39;12.40;99.90
5705;DHT22;2877;48.238;11.160;2023-03-14T10:56:06;12.50;99.90
5705;DHT22;2877;48.238;11.160;2023-03-14T10:58:42;12.40;99.90
5705;DHT22;2877;48.238;11.160;2023-03-14T11:03:42;12.40;99.90
5705;DHT22;2877;48.238;11.160;2023-03-14T11:06:17;12.30;99.90
5705;DHT22;2877;48.238;11.160;2023-03-14T11:09:28;12.40;99.90
5705;DHT22;2877;48.238;11.160;2023-03-14T11:11:49;12.60;99.90
5705;DHT22;2877;48.238;11.160;2023-03-14T11:14:34;12.70;99.90
5705;DHT22;2877;48.238;11.160;2023-03-14T11:19:49;12.80;99.90
5705;DHT22;2877;48.238;11.160;2023-03-14T11:22:28;12.70;99.90
5705;DHT22;2877;48.238;11.160;2023-03-14T11:25:21;12.80;99.80
5705;DHT22;2877;48.238;11.160;2023-03-14T11:27:52;12.90;99.50
5705;DHT22;2877;48.238;11.160;2023-03-14T11:33:01;12.80;99.90
5705;DHT22;2877;48.238;11.160;2023-03-14T11:35:34;12.70;99.90
5705;DHT22;2877;48.238;11.160;2023-03-14T11:38:26;12.90;99.90
5705;DHT22;2877;48.238;11.160;2023-03-14T11:40:56;12.90;98.50
5705;DHT22;2877;48.238;11.160;2023-03-14T11:43:32;12.90;99.70
5705;DHT22;2877;48.238;11.160;2023-03-14T11:46:45;12.90;98.70
5705;DHT22;2877;48.238;11.160;2023-03-14T11:49:23;12.90;99.00
5705;DHT22;2877;48.238;11.160;2023-03-14T11:51:56;12.90;99.90
5705;DHT22;2877;48.238;11.160;2023-03-14T11:54:43;12.70;99.50
5705;DHT22;2877;48.238;11.160;2023-03-14T11:57:15;12.60;98.80
5705;DHT22;2877;48.238;11.160;2023-03-14T11:59:58;12.50;99.10
5705;DHT22;2877;48.238;11.160;2023-03-14T12:05:38;12.50;98.80
5705;DHT22;2877;48.238;11.160;2023-03-14T12:10:54;12.50;99.90
5705;DHT22;2877;48.238;11.160;2023-03-14T12:13:21;12.60;99.10
5705;DHT22;2877;48.238;11.160;2023-03-14T12:18:32;12.80;99.50
5705;DHT22;2877;48.238;11.160;2023-03-14T12:21:18;12.90;98.90
5705;DHT22;2877;48.238;11.160;2023-03-14T12:23:54;12.70;99.50
5705;DHT22;2877;48.238;11.160;2023-03-14T12:26:22;12.50;99.60
5705;DHT22;2877;48.238;11.160;2023-03-14T12:34:02;12.10;99.90
5705;DHT22;2877;48.238;11.160;2023-03-14T12:36:56;12.10;99.90
5705;DHT22;2877;48.238;11.160;2023-03-14T12:39:45;12.10;99.90
5705;DHT22;2877;48.238;11.160;2023-03-14T12:42:13;12.30;99.40
5705;DHT22;2877;48.238;11.160;2023-03-14T12:49:45;12.10;99.90
5705;DHT22;2877;48.238;11.160;2023-03-14T12:52:19;12.10;99.90
5705;DHT22;2877;48.238;11.160;2023-03-14T13:00:31;11.70;99.90
5705;DHT22;2877;48.238;11.160;2023-03-14T13:03:20;11.60;99.90
5705;DHT22;2877;48.238;11.160;2023-03-14T13:05:54;11.30;99.90
5705;DHT22;2877;48.238;11.160;2023-03-14T13:08:40;11.20;99.90
5705;DHT22;2877;48.238;11.160;2023-03-14T13:11:13;10.90;99.90
5705;DHT22;2877;48.238;11.160;2023-03-14T13:13:55;10.50;99.90
5705;DHT22;2877;48.238;11.160;2023-03-14T13:16:21;10.40;99.90
5705;DHT22;2877;48.238;11.160;2023-03-14T13:18:59;10.50;99.90
5705;DHT22;2877;48.238;11.160;2023-03-14T13:21:27;10.60;99.90
5705;DHT22;2877;48.238;11.160;2023-03-14T13:24:02;10.50;99.90
5705;DHT22;2877;48.238;11.160;2023-03-14T13:26:39;10.50;99.90
5705;DHT22;2877;48.238;11.160;2023-03-14T13:31:49;10.20;99.90
5705;DHT22;2877;48.238;11.160;2023-03-14T13:34:15;10.20;99.90
5705;DHT22;2877;48.238;11.160;2023-03-14T13:36:40;10.10;99.90
5705;DHT22;2877;48.238;11.160;2023-03-14T13:39:20;10.00;99.90
5705;DHT22;2877;48.238;11.160;2023-03-14T13:41:50;9.90;99.90
5705;DHT22;2877;48.238;11.160;2023-03-14T13:44:26;9.90;99.90
5705;DHT22;2877;48.238;11.160;2023-03-14T13:47:01;9.80;99.90
5705;DHT22;2877;48.238;11.160;2023-03-14T13:49:28;9.70;99.90
5705;DHT22;2877;48.238;11.160;2023-03-14T13:51:56;9.60;99.90
5705;DHT22;2877;48.238;11.160;2023-03-14T13:54:22;9.50;99.90
5705;DHT22;2877;48.238;11.160;2023-03-14T13:56:48;9.20;99.90
5705;DHT22;2877;48.238;11.160;2023-03-14T13:59:31;9.10;99.90
5705;DHT22;2877;48.238;11.160;2023-03-14T14:01:59;8.80;99.90
5705;DHT22;2877;48.238;11.160;2023-03-14T14:04:26;8.60;99.90
5705;DHT22;2877;48.238;11.160;2023-03-14T14:07:01;8.30;99.90
5705;DHT22;2877;48.238;11.160;2023-03-14T14:09:37;8.00;99.90
5705;DHT22;2877;48.238;11.160;2023-03-14T14:12:13;8.00;99.90
5705;DHT22;2877;48.238;11.160;2023-03-14T14:17:13;7.90;99.90
5705;DHT22;2877;48.238;11.160;2023-03-14T14:19:41;7.90;99.90
5705;DHT22;2877;48.238;11.160;2023-03-14T14:22:09;7.90;99.90
5705;DHT22;2877;48.238;11.160;2023-03-14T14:24:36;7.90;99.90
5705;DHT22;2877;48.238;11.160;2023-03-14T14:27:12;8.00;99.90
5705;DHT22;2877;48.238;11.160;2023-03-14T14:29:38;8.00;99.90
5705;DHT22;2877;48.238;11.160;2023-03-14T14:34:45;7.90;99.90
5705;DHT22;2877;48.238;11.160;2023-03-14T14:37:22;7.80;99.90
5705;DHT22;2877;48.238;11.160;2023-03-14T14:39:49;7.80;99.90
5705;DHT22;2877;48.238;11.160;2023-03-14T14:42:17;7.80;99.90
5705;DHT22;2877;48.238;11.160;2023-03-14T14:44:44;7.90;99.90
5705;DHT22;2877;48.238;11.160;2023-03-14T14:47:14;7.90;99.90
5705;DHT22;2877;48.238;11.160;2023-03-14T14:49:40;8.00;99.90
5705;DHT22;2877;48.238;11.160;2023-03-14T14:52:13;8.00;99.90
5705;DHT22;2877;48.238;11.160;2023-03-14T14:54:45;7.80;99.90
5705;DHT22;2877;48.238;11.160;2023-03-14T14:57:24;7.70;99.90
5705;DHT22;2877;48.238;11.160;2023-03-14T14:59:51;7.10;99.90
5705;DHT22;2877;48.238;11.160;2023-03-14T15:02:48;6.50;99.90
5705;DHT22;2877;48.238;11.160;2023-03-14T15:05:15;6.30;99.90
5705;DHT22;2877;48.238;11.160;2023-03-14T15:07:41;6.10;99.90
5705;DHT22;2877;48.238;11.160;2023-03-14T15:10:22;6.00;99.90
5705;DHT22;2877;48.238;11.160;2023-03-14T15:12:48;6.00;99.90
5705;DHT22;2877;48.238;11.160;2023-03-14T15:15:14;6.00;99.90
5705;DHT22;2877;48.238;11.160;2023-03-14T15:17:40;6.10;99.90
5705;DHT22;2877;48.238;11.160;2023-03-14T15:20:11;6.20;99.90
5705;DHT22;2877;48.238;11.160;2023-03-14T15:22:38;6.40;99.90
5705;DHT22;2877;48.238;11.160;2023-03-14T15:25:05;6.50;99.90
5705;DHT22;2877;48.238;11.160;2023-03-14T15:27:31;6.60;99.90
5705;DHT22;2877;48.238;11.160;2023-03-14T15:29:57;6.80;99.90
5705;DHT22;2877;48.238;11.160;2023-03-14T15:32:25;7.00;99.90
5705;DHT22;2877;48.238;11.160;2023-03-14T15:34:53;7.00;99.90
5705;DHT22;2877;48.238;11.160;2023-03-14T15:37:19;7.00;99.90
5705;DHT22;2877;48.238;11.160;2023-03-14T15:39:45;7.00;99.90
5705;DHT22;2877;48.238;11.160;2023-03-14T15:42:11;7.10;99.90
5705;DHT22;2877;48.238;11.160;2023-03-14T15:44:37;7.10;99.90
5705;DHT22;2877;48.238;11.160;2023-03-14T15:47:03;7.10;99.90
5705;DHT22;2877;48.238;11.160;2023-03-14T15:49:28;7.10;99.90
5705;DHT22;2877;48.238;11.160;2023-03-14T15:51:54;7.10;99.90
5705;DHT22;2877;48.238;11.160;2023-03-14T15:54:20;7.10;99.90
5705;DHT22;2877;48.238;11.160;2023-03-14T15:56:45;7.30;99.90
5705;DHT22;2877;48.238;11.160;2023-03-14T15:59:11;7.30;99.90
5705;DHT22;2877;48.238;11.160;2023-03-14T16:01:36;7.40;99.90
5705;DHT22;2877;48.238;11.160;2023-03-14T16:04:02;7.40;99.90
5705;DHT22;2877;48.238;11.160;2023-03-14T16:06:28;7.40;99.90
5705;DHT22;2877;48.238;11.160;2023-03-14T16:08:54;7.40;99.90
5705;DHT22;2877;48.238;11.160;2023-03-14T16:11:19;7.40;99.90
5705;DHT22;2877;48.238;11.160;2023-03-14T16:13:46;7.40;99.90
5705;DHT22;2877;48.238;11.160;2023-03-14T16:16:11;7.40;99.90
5705;DHT22;2877;48.238;11.160;2023-03-14T16:18:40;7.30;99.90
5705;DHT22;2877;48.238;11.160;2023-03-14T16:21:10;7.30;99.90
5705;DHT22;2877;48.238;11.160;2023-03-14T16:23:36;7.40;99.90
5705;DHT22;2877;48.238;11.160;2023-03-14T16:26:10;7.30;99.90
5705;DHT22;2877;48.238;11.160;2023-03-14T16:28:36;7.20;99.90
5705;DHT22;2877;48.238;11.160;2023-03-14T16:31:10;7.10;99.90
5705;DHT22;2877;48.238;11.160;2023-03-14T16:33:37;7.00;99.90
5705;DHT22;2877;48.238;11.160;2023-03-14T16:36:04;7.00;99.90
5705;DHT22;2877;48.238;11.160;2023-03-14T16:38:36;6.80;99.90
5705;DHT22;2877;48.238;11.160;2023-03-14T16:41:20;6.70;99.90
5705;DHT22;2877;48.238;11.160;2023-03-14T16:43:47;6.70;99.90
5705;DHT22;2877;48.238;11.160;2023-03-14T16:46:17;6.70;99.90
5705;DHT22;2877;48.238;11.160;2023-03-14T16:48:42;6.70;99.90
5705;DHT22;2877;48.238;11.160;2023-03-14T16:51:08;6.70;99.90
5705;DHT22;2877;48.238;11.160;2023-03-14T16:53:34;6.70;99.90
5705;DHT22;2877;48.238;11.160;2023-03-14T16:55:59;6.60;99.90
5705;DHT22;2877;48.238;11.160;2023-03-14T16:58:25;6.60;99.90
5705;DHT22;2877;48.238;11.160;2023-03-14T17:00:51;6.60;99.90